createdAt,value
2022-12-20T00:00:42.803Z,46.25
2022-12-20T00:03:40.370Z,47.22
2022-12-20T00:06:28.356Z,47.53
2022-12-20T00:09:14.965Z,45.85
2022-12-20T00:12:05.945Z,49.60
2022-12-20T00:14:50.212Z,48.00
2022-12-20T00:17:37.802Z,51.38
2022-12-20T00:20:32.924Z,46.53
2022-12-20T00:23:24.245Z,48.28
2022-12-20T00:26:20.142Z,50.70
2022-12-20T00:29:16.059Z,46.17
2022-12-20T00:31:56.875Z,49.42
2022-12-20T00:34:48.631Z,45.78
2022-12-20T00:37:28.710Z,46.47
2022-12-20T00:40:20.774Z,47.25
2022-12-20T00:43:08.229Z,41.97
2022-12-20T00:45:51.039Z,44.05
2022-12-20T00:48:38.724Z,43.00
2022-12-20T00:51:42.727Z,45.03
2022-12-20T00:54:35.041Z,43.47
2022-12-20T00:57:16.741Z,43.80
2022-12-20T00:59:49.400Z,45.40
2022-12-20T01:02:36.900Z,44.05
2022-12-20T01:05:25.405Z,45.35
2022-12-20T01:08:25.199Z,47.80
2022-12-20T01:11:50.522Z,45.03
2022-12-20T01:14:32.127Z,46.85
2022-12-20T01:17:21.265Z,45.05
2022-12-20T01:20:09.758Z,44.58
2022-12-20T01:25:55.641Z,44.15
2022-12-20T01:28:52.780Z,45.63
2022-12-20T01:31:38.959Z,43.95
2022-12-20T01:34:25.180Z,45.30
2022-12-20T01:37:11.925Z,44.25
2022-12-20T01:39:58.270Z,44.83
2022-12-20T01:42:40.322Z,44.47
2022-12-20T01:45:35.394Z,44.25
2022-12-20T01:48:31.249Z,44.95
2022-12-20T01:51:15.458Z,46.50
2022-12-20T01:54:01.695Z,49.42
2022-12-20T01:56:55.199Z,46.35
2022-12-20T01:59:50.102Z,45.00
2022-12-20T02:02:34.959Z,45.63
2022-12-20T02:05:26.085Z,45.03
2022-12-20T02:08:18.515Z,44.00
2022-12-20T02:11:23.965Z,42.05
2022-12-20T02:14:20.654Z,44.58
2022-12-20T02:17:36.510Z,42.28
2022-12-20T02:20:38.651Z,40.65
2022-12-20T02:23:53.827Z,42.28
2022-12-20T02:27:33.387Z,40.85
2022-12-20T02:30:34.285Z,42.53
2022-12-20T02:33:20.526Z,42.95
2022-12-20T02:36:02.456Z,44.38
2022-12-20T02:38:52.919Z,44.00
2022-12-20T02:45:03.275Z,40.72
2022-12-20T02:48:17.875Z,39.85
2022-12-20T02:51:03.917Z,42.08
2022-12-20T02:53:53.457Z,42.22
2022-12-20T02:56:45.846Z,42.50
2022-12-20T02:59:47.765Z,43.72
2022-12-20T03:02:49.950Z,43.50
2022-12-20T03:05:46.796Z,39.55
2022-12-20T03:08:36.851Z,42.75
2022-12-20T03:11:23.876Z,39.78
2022-12-20T03:14:15.831Z,41.40
2022-12-20T03:17:00.747Z,40.63
2022-12-20T03:19:44.485Z,41.67
2022-12-20T03:22:37.178Z,43.95
2022-12-20T03:25:26.137Z,41.20
2022-12-20T03:28:15.072Z,40.17
2022-12-20T03:31:03.700Z,41.78
2022-12-20T03:33:47.274Z,42.50
2022-12-20T03:36:35.938Z,44.60
2022-12-20T03:39:35.330Z,43.50
2022-12-20T03:42:21.017Z,39.97
2022-12-20T03:45:10.064Z,42.40
2022-12-20T03:47:54.588Z,41.28
2022-12-20T03:50:40.796Z,39.92
2022-12-20T03:53:22.581Z,40.78
2022-12-20T03:56:14.221Z,42.42
2022-12-20T03:59:11.147Z,44.47
2022-12-20T04:02:00.382Z,40.05
2022-12-20T04:04:48.262Z,41.85
2022-12-20T04:07:32.197Z,42.40
2022-12-20T04:10:21.477Z,43.25
2022-12-20T04:13:02.393Z,43.22
2022-12-20T04:16:10.292Z,42.00
2022-12-20T04:19:02.787Z,43.63
2022-12-20T04:22:05.121Z,42.22
2022-12-20T04:24:58.803Z,45.05
2022-12-20T04:27:41.264Z,41.63
2022-12-20T04:30:26.699Z,39.45
2022-12-20T04:33:15.554Z,42.63
2022-12-20T04:35:54.383Z,43.03
2022-12-20T04:38:41.489Z,42.22
2022-12-20T04:41:27.481Z,39.05
2022-12-20T04:44:16.795Z,41.88
2022-12-20T04:47:10.282Z,41.45
2022-12-20T04:49:56.687Z,41.72
2022-12-20T04:53:05.579Z,43.45
2022-12-20T04:55:52.191Z,40.88
2022-12-20T04:58:56.469Z,40.78
2022-12-20T05:01:44.815Z,43.30
2022-12-20T05:04:40.476Z,40.40
2022-12-20T05:07:35.039Z,40.45
2022-12-20T05:10:18.860Z,42.30
2022-12-20T05:13:09.401Z,41.13
2022-12-20T05:16:00.402Z,42.50
2022-12-20T05:19:01.099Z,42.33
2022-12-20T05:22:13.109Z,42.13
2022-12-20T05:25:14.445Z,39.08
2022-12-20T05:28:07.137Z,41.70
2022-12-20T05:30:58.813Z,41.10
2022-12-20T05:33:41.574Z,42.83
2022-12-20T05:36:28.913Z,39.92
2022-12-20T05:39:30.491Z,42.65
2022-12-20T05:42:29.750Z,42.78
2022-12-20T05:45:29.702Z,41.75
2022-12-20T05:48:16.785Z,43.13
2022-12-20T05:51:12.910Z,44.38
2022-12-20T05:54:25.797Z,42.03
2022-12-20T05:57:23.751Z,45.83
2022-12-20T06:00:18.435Z,44.42
2022-12-20T06:03:25.043Z,43.13
2022-12-20T06:06:14.588Z,40.67
2022-12-20T06:09:04.222Z,41.58
2022-12-20T06:11:57.582Z,38.67
2022-12-20T06:14:39.227Z,41.80
2022-12-20T06:17:21.997Z,39.28
2022-12-20T06:20:11.042Z,41.30
2022-12-20T06:23:02.288Z,41.70
2022-12-20T06:25:59.533Z,42.42
2022-12-20T06:29:20.982Z,41.35
2022-12-20T06:32:37.767Z,43.17
2022-12-20T06:38:34.888Z,40.83
2022-12-20T06:41:15.701Z,36.63
2022-12-20T06:43:56.687Z,40.25
2022-12-20T06:46:37.782Z,38.55
2022-12-20T06:49:13.044Z,40.78
2022-12-20T06:52:15.942Z,36.45
2022-12-20T06:55:15.022Z,36.67
2022-12-20T06:57:59.767Z,37.20
2022-12-20T07:00:57.139Z,37.50
2022-12-20T07:03:46.543Z,36.05
2022-12-20T07:06:51.650Z,38.35
2022-12-20T07:09:47.920Z,37.80
2022-12-20T07:12:56.670Z,38.47
2022-12-20T07:15:41.646Z,35.47
2022-12-20T07:18:41.450Z,35.25
2022-12-20T07:21:31.516Z,42.38
2022-12-20T07:24:09.538Z,36.80
2022-12-20T07:26:59.780Z,38.75
2022-12-20T07:29:51.667Z,34.45
2022-12-20T07:32:30.043Z,36.35
2022-12-20T07:35:08.937Z,34.45
2022-12-20T07:37:53.113Z,36.65
2022-12-20T07:40:51.113Z,37.33
2022-12-20T07:43:44.605Z,39.92
2022-12-20T07:46:34.945Z,34.83
2022-12-20T07:49:19.570Z,35.17
2022-12-20T07:52:07.880Z,33.58
2022-12-20T07:55:07.608Z,34.03
2022-12-20T07:58:03.721Z,32.92
2022-12-20T08:00:51.993Z,36.58
2022-12-20T08:03:54.729Z,32.90
2022-12-20T08:06:45.611Z,32.78
2022-12-20T08:09:31.740Z,32.42
2022-12-20T08:12:19.358Z,35.72
2022-12-20T08:14:56.712Z,39.03
2022-12-20T08:17:43.611Z,32.92
2022-12-20T08:20:22.107Z,32.67
2022-12-20T08:23:06.553Z,34.28
2022-12-20T08:25:55.918Z,33.15
2022-12-20T08:28:39.850Z,32.30
2022-12-20T08:31:24.249Z,35.20
2022-12-20T08:34:10.849Z,34.33
2022-12-20T08:36:57.081Z,36.20
2022-12-20T08:39:39.397Z,35.55
2022-12-20T08:42:43.150Z,36.95
2022-12-20T08:45:28.746Z,35.25
2022-12-20T08:48:31.807Z,32.72
2022-12-20T08:51:16.573Z,37.97
2022-12-20T08:54:07.401Z,32.67
2022-12-20T08:56:48.848Z,32.42
2022-12-20T08:59:36.209Z,31.42
2022-12-20T09:02:14.050Z,35.63
2022-12-20T09:05:12.953Z,30.08
2022-12-20T09:08:07.655Z,36.58
2022-12-20T09:10:55.251Z,32.08
2022-12-20T09:13:44.287Z,30.75
2022-12-20T09:16:35.272Z,29.48
2022-12-20T09:19:23.175Z,30.30
2022-12-20T09:22:17.007Z,29.55
2022-12-20T09:25:00.370Z,31.02
2022-12-20T09:27:47.706Z,29.42
2022-12-20T09:30:38.633Z,29.75
2022-12-20T09:33:19.965Z,29.48
2022-12-20T09:38:52.567Z,27.23
2022-12-20T09:41:44.319Z,28.75
2022-12-20T09:45:00.611Z,28.55
2022-12-20T09:47:52.576Z,27.48
2022-12-20T09:50:58.395Z,27.65
2022-12-20T09:54:07.650Z,28.20
2022-12-20T09:57:07.017Z,26.67
2022-12-20T09:59:53.292Z,26.48
2022-12-20T10:02:57.049Z,26.35
2022-12-20T10:05:54.980Z,25.83
2022-12-20T10:08:50.078Z,24.75
2022-12-20T10:11:52.791Z,25.38
2022-12-20T10:14:47.719Z,23.92
2022-12-20T10:17:39.588Z,28.20
2022-12-20T10:20:58.850Z,24.77
2022-12-20T10:24:30.165Z,24.33
2022-12-20T10:27:24.817Z,26.13
2022-12-20T10:30:16.169Z,24.02
2022-12-20T10:32:58.579Z,23.27
2022-12-20T10:35:46.819Z,23.58
2022-12-20T10:38:26.953Z,22.85
2022-12-20T10:41:21.333Z,26.45
2022-12-20T10:44:36.379Z,23.40
2022-12-20T10:47:50.111Z,25.77
2022-12-20T10:50:32.072Z,23.13
2022-12-20T10:53:35.648Z,24.17
2022-12-20T10:56:31.891Z,27.58
2022-12-20T10:59:26.869Z,24.48
2022-12-20T11:02:06.004Z,26.45
2022-12-20T11:05:00.685Z,23.83
2022-12-20T11:07:38.741Z,24.02
2022-12-20T11:10:42.023Z,23.42
2022-12-20T11:13:32.727Z,24.63
2022-12-20T11:16:35.591Z,23.67
2022-12-20T11:19:27.142Z,22.00
2022-12-20T11:22:22.834Z,24.10
2022-12-20T11:25:39.777Z,22.88
2022-12-20T11:28:39.964Z,22.55
2022-12-20T11:32:00.253Z,24.65
2022-12-20T11:34:56.041Z,25.38
2022-12-20T11:37:55.390Z,24.27
2022-12-20T11:41:11.691Z,29.00
2022-12-20T11:47:32.828Z,22.83
2022-12-20T11:50:47.844Z,23.73
2022-12-20T11:53:57.437Z,22.13
2022-12-20T11:56:43.579Z,23.67
2022-12-20T11:59:52.185Z,24.60
2022-12-20T12:03:12.085Z,22.63
2022-12-20T12:06:16.224Z,24.15
2022-12-20T12:09:10.987Z,25.98
2022-12-20T12:12:21.354Z,23.02
2022-12-20T12:15:17.618Z,23.00
2022-12-20T12:18:19.718Z,25.08
2022-12-20T12:21:24.669Z,23.98
2022-12-20T12:24:25.413Z,23.13
2022-12-20T12:27:16.261Z,23.27
2022-12-20T12:29:46.761Z,24.13
2022-12-20T12:32:46.956Z,23.67
2022-12-20T12:35:44.055Z,21.35
2022-12-20T12:38:39.853Z,22.90
2022-12-20T12:41:52.277Z,22.85
2022-12-20T12:44:39.571Z,26.27
2022-12-20T12:47:43.519Z,24.45
2022-12-20T12:50:39.775Z,23.92
2022-12-20T12:53:39.642Z,23.45
2022-12-20T12:57:04.785Z,24.08
2022-12-20T12:59:58.630Z,27.35
2022-12-20T13:02:53.948Z,29.35
2022-12-20T13:05:37.690Z,32.40
2022-12-20T13:11:14.819Z,30.05
2022-12-20T13:13:50.607Z,32.75
2022-12-20T13:20:05.772Z,34.97
2022-12-20T13:22:46.090Z,35.80
2022-12-20T13:25:39.711Z,37.67
2022-12-20T13:28:47.963Z,39.80
2022-12-20T13:31:43.413Z,38.83
2022-12-20T13:34:42.405Z,39.22
2022-12-20T13:38:06.155Z,40.72
2022-12-20T13:40:45.060Z,40.13
2022-12-20T13:43:44.474Z,37.97
2022-12-20T13:46:45.842Z,38.63
2022-12-20T13:49:49.116Z,39.67
2022-12-20T13:52:41.646Z,38.75
2022-12-20T13:56:00.137Z,38.97
2022-12-20T13:59:07.575Z,37.78
2022-12-20T14:01:57.460Z,42.83
2022-12-20T14:04:59.380Z,45.50
2022-12-20T14:07:52.793Z,46.35
2022-12-20T14:10:29.110Z,45.45
2022-12-20T14:13:25.902Z,42.83
2022-12-20T14:16:29.008Z,42.42
2022-12-20T14:19:13.753Z,40.08
2022-12-20T14:21:59.889Z,45.03
2022-12-20T14:24:51.910Z,47.63
2022-12-20T14:27:47.649Z,46.58
2022-12-20T14:31:06.245Z,45.35
2022-12-20T14:33:50.612Z,42.97
2022-12-20T14:36:32.751Z,45.58
2022-12-20T14:39:36.177Z,46.47
2022-12-20T14:42:20.273Z,45.97
2022-12-20T14:45:24.560Z,45.70
2022-12-20T14:50:56.927Z,46.00
2022-12-20T14:53:39.266Z,50.40
2022-12-20T14:56:31.699Z,49.33
2022-12-20T14:59:43.482Z,48.38
2022-12-20T15:02:39.978Z,49.72
2022-12-20T15:05:54.169Z,49.75
2022-12-20T15:08:33.720Z,53.58
2022-12-20T15:11:23.037Z,51.20
2022-12-20T15:14:02.441Z,53.42
2022-12-20T15:16:55.333Z,49.60
2022-12-20T15:19:38.877Z,50.53
2022-12-20T15:22:50.092Z,52.45
2022-12-20T15:25:45.165Z,49.90
2022-12-20T15:28:40.534Z,52.67
2022-12-20T15:31:34.327Z,50.40
2022-12-20T15:34:25.657Z,49.08
2022-12-20T15:37:06.473Z,49.05
2022-12-20T15:39:45.625Z,46.25
2022-12-20T15:45:37.676Z,50.13
2022-12-20T15:48:24.717Z,49.10
2022-12-20T15:51:21.423Z,48.67
2022-12-20T15:54:05.470Z,46.38
2022-12-20T15:56:49.080Z,48.70
2022-12-20T16:02:40.520Z,48.80
2022-12-20T16:05:36.521Z,50.60
2022-12-20T16:08:11.767Z,49.08
2022-12-20T16:11:01.051Z,49.17
2022-12-20T16:13:44.071Z,54.95
2022-12-20T16:16:26.775Z,54.90
2022-12-20T16:19:10.934Z,51.90
2022-12-20T16:22:01.425Z,50.08
2022-12-20T16:24:53.320Z,51.88
2022-12-20T16:27:40.130Z,52.05
2022-12-20T16:30:32.614Z,50.22
2022-12-20T16:33:21.381Z,50.53
2022-12-20T16:36:05.675Z,52.03
2022-12-20T16:39:00.698Z,51.58
2022-12-20T16:41:47.870Z,50.22
2022-12-20T16:44:33.202Z,53.28
2022-12-20T16:47:14.834Z,54.17
2022-12-20T16:50:05.083Z,52.40
2022-12-20T16:52:38.205Z,53.03
2022-12-20T16:55:37.695Z,54.28
2022-12-20T16:58:38.656Z,54.22
2022-12-20T17:01:38.460Z,53.38
2022-12-20T17:04:21.494Z,51.67
2022-12-20T17:07:12.210Z,53.35
2022-12-20T17:12:52.954Z,51.97
2022-12-20T17:15:39.169Z,42.25
2022-12-20T17:18:25.453Z,54.58
2022-12-20T17:21:01.164Z,54.88
2022-12-20T17:23:53.754Z,54.40
2022-12-20T17:26:40.653Z,53.30
2022-12-20T17:29:21.756Z,52.72
2022-12-20T17:32:03.091Z,53.47
2022-12-20T17:37:32.555Z,50.08
2022-12-20T17:40:17.153Z,53.70
2022-12-20T17:42:58.506Z,54.15
2022-12-20T17:45:48.595Z,55.53
2022-12-20T17:48:33.917Z,54.05
2022-12-20T17:51:30.969Z,52.80
2022-12-20T17:54:09.788Z,56.40
2022-12-20T17:56:58.056Z,53.50
2022-12-20T17:59:42.559Z,54.83
2022-12-20T18:02:37.524Z,55.63
2022-12-20T18:05:31.470Z,53.13
2022-12-20T18:08:19.426Z,50.53
2022-12-20T18:11:07.137Z,50.08
2022-12-20T18:13:47.953Z,52.72
2022-12-20T18:16:36.332Z,53.72
2022-12-20T18:19:21.566Z,55.10
2022-12-20T18:22:06.666Z,57.90
2022-12-20T18:24:50.541Z,55.15
2022-12-20T18:27:30.576Z,53.22
2022-12-20T18:30:25.711Z,50.38
2022-12-20T18:33:01.748Z,52.72
2022-12-20T18:35:49.503Z,50.72
2022-12-20T18:38:44.808Z,53.22
2022-12-20T18:41:33.283Z,50.85
2022-12-20T18:44:43.253Z,50.33
2022-12-20T18:47:32.482Z,50.20
2022-12-20T18:50:24.109Z,54.17
2022-12-20T18:53:14.646Z,53.28
2022-12-20T18:55:58.378Z,52.45
2022-12-20T18:58:48.942Z,51.75
2022-12-20T19:01:50.442Z,55.92
2022-12-20T19:04:45.312Z,56.45
2022-12-20T19:07:34.138Z,54.58
2022-12-20T19:10:22.656Z,54.25
2022-12-20T19:13:06.117Z,53.50
2022-12-20T19:18:25.993Z,53.05
2022-12-20T19:24:09.858Z,52.17
2022-12-20T19:27:01.145Z,49.53
2022-12-20T19:29:57.710Z,50.15
2022-12-20T19:32:35.758Z,50.80
2022-12-20T19:35:52.781Z,50.83
2022-12-20T19:38:29.817Z,50.70
2022-12-20T19:41:21.104Z,54.53
2022-12-20T19:44:06.318Z,54.17
2022-12-20T19:46:50.081Z,55.70
2022-12-20T19:52:29.002Z,52.58
2022-12-20T19:55:26.867Z,55.17
2022-12-20T19:58:10.563Z,53.85
2022-12-20T20:00:55.959Z,54.20
2022-12-20T20:03:49.253Z,54.55
2022-12-20T20:06:33.367Z,56.72
2022-12-20T20:09:20.418Z,53.42
2022-12-20T20:12:11.608Z,52.65
2022-12-20T20:14:55.252Z,53.00
2022-12-20T20:17:42.482Z,53.92
2022-12-20T20:20:23.242Z,51.55
2022-12-20T20:23:09.557Z,53.03
2022-12-20T20:25:58.830Z,50.72
2022-12-20T20:28:45.099Z,50.97
2022-12-20T20:31:30.791Z,56.10
2022-12-20T20:34:10.659Z,53.65
2022-12-20T20:36:56.902Z,51.92
2022-12-20T20:39:34.235Z,53.30
2022-12-20T20:42:23.092Z,46.50
2022-12-20T20:44:58.835Z,52.15
2022-12-20T20:47:47.506Z,51.90
2022-12-20T20:50:28.072Z,48.78
2022-12-20T20:53:16.074Z,50.95
2022-12-20T20:55:59.985Z,51.42
2022-12-20T20:58:39.244Z,48.85
2022-12-20T21:01:22.584Z,50.28
2022-12-20T21:04:03.791Z,50.60
2022-12-20T21:06:49.063Z,49.42
2022-12-20T21:09:32.266Z,51.40
2022-12-20T21:12:12.700Z,49.03
2022-12-20T21:15:21.309Z,49.92
2022-12-20T21:17:57.154Z,46.58
2022-12-20T21:20:41.449Z,50.40
2022-12-20T21:23:20.821Z,49.50
2022-12-20T21:26:07.854Z,47.97
2022-12-20T21:28:47.113Z,45.75
2022-12-20T21:31:33.720Z,46.13
2022-12-20T21:34:20.627Z,46.78
2022-12-20T21:37:10.160Z,48.72
2022-12-20T21:39:53.694Z,48.28
2022-12-20T21:42:35.616Z,47.88
2022-12-20T21:45:22.658Z,45.28
2022-12-20T21:48:04.199Z,46.85
2022-12-20T21:50:42.555Z,50.05
2022-12-20T21:53:37.524Z,46.42
2022-12-20T21:56:24.581Z,48.65
2022-12-20T21:59:02.700Z,48.25
2022-12-20T22:01:45.888Z,47.30
2022-12-20T22:04:29.768Z,47.88
2022-12-20T22:10:05.882Z,46.92
2022-12-20T22:12:55.432Z,46.95
2022-12-20T22:15:36.634Z,49.47
2022-12-20T22:18:15.753Z,47.28
2022-12-20T22:20:56.740Z,47.65
2022-12-20T22:23:35.377Z,47.15
2022-12-20T22:26:17.854Z,48.97
2022-12-20T22:29:12.208Z,48.42
2022-12-20T22:31:53.042Z,47.45
2022-12-20T22:34:43.678Z,46.50
2022-12-20T22:37:27.569Z,47.85
2022-12-20T22:40:09.855Z,48.20
2022-12-20T22:42:57.946Z,47.05
2022-12-20T22:45:41.731Z,48.45
2022-12-20T22:48:18.007Z,47.05
2022-12-20T22:51:21.628Z,48.20
2022-12-20T22:54:07.366Z,48.28
2022-12-20T22:56:49.593Z,47.33
2022-12-20T22:59:43.653Z,48.80
2022-12-20T23:02:24.678Z,49.75
2022-12-20T23:05:17.823Z,48.53
2022-12-20T23:07:55.460Z,50.95
2022-12-20T23:10:58.138Z,50.63
2022-12-20T23:13:59.794Z,48.42
2022-12-20T23:16:43.635Z,49.30
2022-12-20T23:19:25.668Z,48.10
2022-12-20T23:22:17.102Z,50.03
2022-12-20T23:25:02.763Z,48.53
2022-12-20T23:27:40.548Z,49.13
2022-12-20T23:30:27.116Z,50.13
2022-12-20T23:33:15.501Z,49.63
2022-12-20T23:36:08.195Z,47.70
2022-12-20T23:38:39.265Z,46.03
2022-12-20T23:41:26.596Z,49.55
2022-12-20T23:44:19.956Z,49.33
2022-12-20T23:47:01.049Z,49.00
2022-12-20T23:49:48.637Z,49.00
2022-12-20T23:52:29.347Z,49.33
2022-12-20T23:55:07.702Z,49.20
2022-12-20T23:57:48.076Z,49.85
